Time;durP1;ratioP1;P1;durP2;ratioP2;P2;SDS_P1;SDS_P2;PMS_P1;PMS_P2;Temp;Humidity;BMP_temperature;BMP_pressure;BME280_temperature;BME280_humidity;BME280_pressure;Samples;Min_cycle;Max_cycle;Signal;HPM_P1;HPM_P2
2023/06/09 00:01:25;;;;;;;4.68;3.97;;;13.70;99.90;;;;;;5045059;28;20086;-81
2023/06/09 00:03:52;;;;;;;4.80;3.63;;;13.70;99.90;;;;;;5061005;28;20032;-82
2023/06/09 00:06:22;;;;;;;5.30;3.97;;;13.70;99.90;;;;;;5056396;28;20045;-81
2023/06/09 00:08:50;;;;;;;5.07;3.92;;;13.50;99.90;;;;;;5057555;28;20025;-81
2023/06/09 00:11:16;;;;;;;4.30;3.65;;;13.00;99.90;;;;;;5054553;28;20059;-81
2023/06/09 00:13:42;;;;;;;4.72;4.03;;;12.60;99.90;;;;;;5060158;28;20044;-82
2023/06/09 00:16:07;;;;;;;5.40;4.88;;;12.60;99.90;;;;;;5049243;28;20029;-81
2023/06/09 00:18:34;;;;;;;6.22;4.25;;;12.70;99.90;;;;;;5053183;28;20040;-82
2023/06/09 00:21:01;;;;;;;6.13;4.88;;;12.60;99.90;;;;;;5047113;28;20030;-82
2023/06/09 00:23:28;;;;;;;5.05;4.55;;;12.70;99.90;;;;;;5053815;28;20032;-81
2023/06/09 00:25:54;;;;;;;4.50;3.97;;;12.80;99.90;;;;;;5033790;28;20064;-81
2023/06/09 00:28:20;;;;;;;6.13;4.60;;;12.80;99.90;;;;;;5033869;28;20040;-81
2023/06/09 00:30:45;;;;;;;5.28;4.25;;;12.90;99.90;;;;;;5057249;28;20552;-82
2023/06/09 00:33:11;;;;;;;6.85;4.57;;;12.90;99.90;;;;;;5055338;28;20087;-82
2023/06/09 00:35:37;;;;;;;5.03;4.38;;;12.90;99.90;;;;;;5058841;28;20027;-82
2023/06/09 00:38:03;;;;;;;8.07;4.65;;;13.00;99.90;;;;;;5056027;28;20029;-82
2023/06/09 00:40:28;;;;;;;5.85;5.00;;;12.90;99.90;;;;;;5058560;28;20036;-81
2023/06/09 00:42:54;;;;;;;5.20;4.53;;;13.00;99.90;;;;;;5058909;28;20032;-81
2023/06/09 00:45:20;;;;;;;5.75;4.30;;;12.90;99.90;;;;;;5061714;28;20041;-82
2023/06/09 00:47:46;;;;;;;5.65;4.63;;;12.90;99.90;;;;;;5055183;28;20037;-82
2023/06/09 00:50:13;;;;;;;7.32;4.70;;;12.90;99.90;;;;;;5051266;28;20049;-82
2023/06/09 00:52:40;;;;;;;6.65;4.72;;;12.90;99.90;;;;;;5051371;28;20057;-81
2023/06/09 00:55:06;;;;;;;5.90;4.82;;;12.80;99.90;;;;;;5051793;28;20131;-80
2023/06/09 00:57:33;;;;;;;6.43;4.75;;;12.90;99.90;;;;;;5061120;28;20516;-81
2023/06/09 01:00:00;;;;;;;6.70;5.25;;;12.90;99.90;;;;;;5056379;28;20037;-81
2023/06/09 01:02:26;;;;;;;6.95;5.50;;;12.70;99.90;;;;;;5058679;28;20041;-80
2023/06/09 01:04:54;;;;;;;6.18;5.10;;;12.40;99.90;;;;;;5060740;28;20102;-81
2023/06/09 01:07:20;;;;;;;;;;;12.30;99.90;;;;;;5056646;28;20033;-81
2023/06/09 01:09:55;;;;;;;8.07;5.43;;;12.20;99.90;;;;;;5058821;28;19893;-81
2023/06/09 01:12:40;;;;;;;7.15;5.05;;;12.20;99.90;;;;;;5052463;28;20492;-80
2023/06/09 01:15:17;;;;;;;6.45;5.38;;;12.20;99.90;;;;;;5047450;28;20025;-82
2023/06/09 01:17:48;;;;;;;8.27;5.63;;;12.20;99.90;;;;;;5052805;28;20068;-82
2023/06/09 01:20:24;;;;;;;7.50;5.55;;;12.10;99.90;;;;;;5051473;28;20051;-81
2023/06/09 01:23:04;;;;;;;8.93;5.75;;;12.20;99.90;;;;;;5053779;28;20025;-81
2023/06/09 01:25:41;;;;;;;8.23;6.13;;;12.20;99.90;;;;;;5052294;28;20083;-81
2023/06/09 01:28:16;;;;;;;8.32;6.07;;;12.20;99.90;;;;;;5057091;28;20044;-81
2023/06/09 01:30:43;;;;;;;8.98;5.30;;;12.20;99.90;;;;;;5051949;28;20036;-81
2023/06/09 01:33:14;;;;;;;9.20;6.00;;;12.20;99.90;;;;;;5061302;28;20043;-81
2023/06/09 01:35:41;;;;;;;8.25;5.47;;;12.20;99.90;;;;;;5051733;28;20052;-80
2023/06/09 01:38:07;;;;;;;6.50;5.32;;;12.20;99.90;;;;;;5053665;28;20029;-81
2023/06/09 01:40:34;;;;;;;7.47;5.75;;;12.30;99.90;;;;;;5053734;28;20036;-82
2023/06/09 01:43:05;;;;;;;7.45;5.45;;;12.40;99.90;;;;;;5060034;28;20032;-81
2023/06/09 01:45:31;;;;;;;6.53;5.47;;;12.40;99.90;;;;;;5055088;28;20040;-80
2023/06/09 01:47:57;;;;;;;8.35;5.70;;;12.50;99.90;;;;;;5058782;28;20714;-82
2023/06/09 01:50:54;;;;;;;7.93;5.68;;;12.50;99.90;;;;;;5049873;28;20037;-84
2023/06/09 01:53:26;;;;;;;6.10;5.28;;;12.40;99.90;;;;;;5058492;28;20079;-81
2023/06/09 01:56:04;;;;;;;7.47;5.63;;;12.20;99.90;;;;;;5048020;28;20084;-81
2023/06/09 01:58:37;;;;;;;10.30;5.93;;;12.30;99.90;;;;;;5050846;28;20025;-81
2023/06/09 02:01:04;;;;;;;8.93;5.70;;;12.40;99.90;;;;;;5055437;28;20040;-81
2023/06/09 02:03:31;;;;;;;6.45;5.50;;;12.50;99.90;;;;;;5057175;28;20033;-81
2023/06/09 02:05:58;;;;;;;8.38;5.65;;;12.40;99.90;;;;;;5060763;28;20025;-81
2023/06/09 02:08:27;;;;;;;7.10;4.72;;;12.40;99.90;;;;;;5060072;28;20021;-81
2023/06/09 02:10:52;;;;;;;7.53;5.47;;;12.30;99.90;;;;;;5056550;28;20094;-81
2023/06/09 02:13:21;;;;;;;7.35;5.40;;;12.40;99.90;;;;;;5055277;28;20794;-84
2023/06/09 02:15:48;;;;;;;7.93;5.90;;;12.40;99.90;;;;;;5038805;28;20029;-84
2023/06/09 02:18:15;;;;;;;10.55;5.93;;;12.30;99.90;;;;;;5042086;28;20040;-81
2023/06/09 02:20:44;;;;;;;7.55;5.38;;;12.30;99.90;;;;;;5061492;28;20058;-81
2023/06/09 02:23:10;;;;;;;7.78;5.57;;;12.40;99.90;;;;;;5061625;28;20028;-82
2023/06/09 02:25:36;;;;;;;8.40;5.60;;;12.50;99.90;;;;;;5061305;28;20029;-81
2023/06/09 02:28:04;;;;;;;7.25;5.35;;;12.50;99.90;;;;;;5060379;28;20028;-81
2023/06/09 02:30:30;;;;;;;6.93;5.30;;;12.60;99.90;;;;;;5057707;28;20116;-82
2023/06/09 02:32:58;;;;;;;6.97;5.47;;;12.60;99.90;;;;;;5052345;28;20459;-81
2023/06/09 02:35:24;;;;;;;9.85;6.18;;;12.60;99.90;;;;;;5058165;28;20048;-82
2023/06/09 02:37:52;;;;;;;8.43;5.57;;;12.50;99.90;;;;;;5058715;28;20033;-81
2023/06/09 02:40:18;;;;;;;6.07;4.88;;;12.40;99.90;;;;;;5056121;28;20033;-81
2023/06/09 02:42:44;;;;;;;6.22;5.10;;;12.40;99.90;;;;;;5057814;28;20033;-80
2023/06/09 02:45:10;;;;;;;5.95;4.95;;;12.40;99.90;;;;;;5060127;28;20033;-81
2023/06/09 02:47:36;;;;;;;5.55;4.53;;;12.40;99.90;;;;;;5059452;28;20051;-81
2023/06/09 02:50:02;;;;;;;6.97;4.75;;;12.40;99.90;;;;;;5054439;28;20025;-81
2023/06/09 02:52:31;;;;;;;7.82;5.55;;;12.40;99.90;;;;;;5036975;28;20048;-81
2023/06/09 02:54:57;;;;;;;7.43;5.53;;;12.20;99.90;;;;;;5032985;28;20129;-82
2023/06/09 02:57:23;;;;;;;6.60;4.85;;;12.20;99.90;;;;;;5030164;28;20033;-82
2023/06/09 02:59:49;;;;;;;6.13;5.18;;;12.10;99.90;;;;;;5022584;28;20041;-81
2023/06/09 03:02:15;;;;;;;6.00;5.28;;;12.00;99.90;;;;;;5027684;28;20101;-81
2023/06/09 03:04:42;;;;;;;7.20;5.22;;;12.00;99.90;;;;;;5038342;28;20022;-82
2023/06/09 03:07:16;;;;;;;6.57;5.45;;;12.00;99.90;;;;;;5034281;28;20014;-81
2023/06/09 03:09:42;;;;;;;10.65;5.32;;;12.00;99.90;;;;;;5038796;28;20072;-83
2023/06/09 03:12:08;;;;;;;7.40;4.97;;;11.70;99.90;;;;;;5032637;28;20081;-82
2023/06/09 03:14:35;;;;;;;5.78;4.93;;;11.70;99.90;;;;;;5045899;28;20029;-82
2023/06/09 03:17:01;;;;;;;6.57;5.18;;;11.70;99.90;;;;;;5031301;28;20021;-81
2023/06/09 03:19:27;;;;;;;7.43;5.00;;;11.80;99.90;;;;;;5044438;28;20512;-82
2023/06/09 03:21:53;;;;;;;5.85;4.80;;;11.80;99.90;;;;;;5033447;28;20091;-82
2023/06/09 03:24:19;;;;;;;7.13;5.53;;;11.80;99.90;;;;;;5038813;28;20037;-81
2023/06/09 03:26:46;;;;;;;7.03;5.22;;;11.70;99.90;;;;;;5037097;28;20112;-82
2023/06/09 03:29:11;;;;;;;6.80;5.30;;;11.70;99.90;;;;;;5033659;28;20083;-81
2023/06/09 03:31:37;;;;;;;5.45;4.60;;;11.80;99.90;;;;;;5041023;28;20132;-82
2023/06/09 03:34:08;;;;;;;6.55;4.60;;;11.80;99.90;;;;;;5028866;28;20086;-82
2023/06/09 03:36:35;;;;;;;5.82;4.57;;;11.80;99.90;;;;;;5031047;28;20025;-82
2023/06/09 03:39:01;;;;;;;11.00;4.70;;;11.80;99.90;;;;;;5030829;28;20045;-82
2023/06/09 03:41:27;;;;;;;6.47;4.35;;;11.90;99.90;;;;;;5028313;28;20037;-82
2023/06/09 03:43:53;;;;;;;7.72;4.75;;;11.90;99.90;;;;;;5033071;28;20030;-82
2023/06/09 03:46:18;;;;;;;6.10;4.63;;;11.90;99.90;;;;;;5026175;28;20068;-82
2023/06/09 03:48:44;;;;;;;5.22;4.50;;;11.90;99.90;;;;;;5032916;28;20556;-82
2023/06/09 03:51:10;;;;;;;4.47;3.97;;;11.90;99.90;;;;;;5028711;28;20030;-83
2023/06/09 03:53:36;;;;;;;5.57;4.30;;;11.90;99.90;;;;;;5032032;28;20085;-82
2023/06/09 03:56:02;;;;;;;5.63;4.80;;;11.90;99.90;;;;;;5026780;28;20040;-82
2023/06/09 03:58:27;;;;;;;6.22;4.63;;;11.90;99.90;;;;;;5038779;28;20124;-81
2023/06/09 04:00:53;;;;;;;5.75;4.30;;;11.90;99.90;;;;;;5032530;28;20831;-81
2023/06/09 04:03:20;;;;;;;5.10;4.60;;;11.90;99.90;;;;;;5036734;28;20014;-82
2023/06/09 04:05:47;;;;;;;5.57;4.88;;;12.00;99.90;;;;;;5034637;28;20036;-82
2023/06/09 04:08:13;;;;;;;7.35;5.32;;;12.10;99.90;;;;;;5034907;28;20044;-85
2023/06/09 04:10:39;;;;;;;5.60;4.53;;;12.00;99.90;;;;;;5037509;28;20034;-85
2023/06/09 04:13:08;;;;;;;5.00;4.25;;;11.90;99.90;;;;;;5039064;28;20075;-82
2023/06/09 04:15:34;;;;;;;6.30;4.60;;;11.90;99.90;;;;;;5032897;28;20040;-82
2023/06/09 04:18:01;;;;;;;7.25;4.68;;;12.00;99.90;;;;;;5036903;28;20029;-81
2023/06/09 04:20:27;;;;;;;5.93;5.07;;;12.00;99.90;;;;;;5036741;28;20029;-81
2023/06/09 04:22:53;;;;;;;5.38;4.53;;;12.00;99.90;;;;;;5036345;28;20029;-82
2023/06/09 04:25:28;;;;;;;6.57;4.57;;;12.00;99.90;;;;;;5033463;28;20029;-81
2023/06/09 04:27:55;;;;;;;5.65;4.40;;;12.00;99.90;;;;;;5035115;28;20030;-82
2023/06/09 04:30:25;;;;;;;7.82;4.90;;;12.00;99.90;;;;;;5037668;28;20029;-82
2023/06/09 04:32:54;;;;;;;7.63;5.10;;;12.10;99.90;;;;;;5041871;28;20056;-81
2023/06/09 04:35:21;;;;;;;6.22;5.15;;;12.20;99.90;;;;;;5038431;28;20025;-81
2023/06/09 04:37:48;;;;;;;6.93;5.00;;;12.20;99.90;;;;;;5035458;28;20021;-81
2023/06/09 04:40:21;;;;;;;5.45;4.95;;;12.20;99.90;;;;;;5032372;28;20698;-81
2023/06/09 04:42:57;;;;;;;8.48;5.50;;;12.40;99.90;;;;;;5038381;28;20029;-82
2023/06/09 04:45:34;;;;;;;7.38;5.47;;;12.50;99.90;;;;;;5032252;28;20501;-82
2023/06/09 04:48:00;;;;;;;7.30;5.55;;;12.60;99.90;;;;;;5036191;28;20037;-82
2023/06/09 04:50:29;;;;;;;8.48;5.70;;;12.80;99.90;;;;;;5042901;28;20037;-83
2023/06/09 04:52:56;;;;;;;;;;;13.00;99.90;;;;;;5047936;28;20109;-82
2023/06/09 04:55:25;;;;;;;7.72;5.63;;;13.00;99.90;;;;;;5056367;28;19909;-81
2023/06/09 04:57:55;;;;;;;10.00;6.28;;;13.10;99.90;;;;;;5056411;28;20030;-81
2023/06/09 05:00:21;;;;;;;9.68;5.60;;;13.30;99.90;;;;;;5057995;28;20041;-82
2023/06/09 05:02:47;;;;;;;7.80;5.32;;;13.30;99.90;;;;;;5056743;28;20108;-81
2023/06/09 05:05:13;;;;;;;8.27;6.43;;;13.30;99.90;;;;;;5055639;28;20071;-81
2023/06/09 05:07:42;;;;;;;8.38;5.95;;;13.30;99.90;;;;;;5050618;28;20521;-81
2023/06/09 05:10:09;;;;;;;9.32;6.13;;;13.30;99.90;;;;;;5042798;28;20037;-81
2023/06/09 05:12:38;;;;;;;8.10;5.82;;;13.50;99.90;;;;;;5035151;28;20034;-80
2023/06/09 05:15:08;;;;;;;7.35;5.70;;;13.50;99.90;;;;;;5058084;28;20085;-80
2023/06/09 05:17:34;;;;;;;8.27;6.53;;;13.60;99.90;;;;;;5057374;28;20035;-81
2023/06/09 05:20:00;;;;;;;8.60;5.90;;;13.60;99.90;;;;;;5055558;28;20036;-80
2023/06/09 05:22:26;;;;;;;8.10;6.07;;;13.70;99.90;;;;;;5051121;28;20029;-81
2023/06/09 05:24:53;;;;;;;8.82;6.38;;;13.90;99.90;;;;;;5059187;28;20032;-82
2023/06/09 05:27:18;;;;;;;9.57;6.78;;;13.90;99.90;;;;;;5049840;28;20036;-85
2023/06/09 05:29:44;;;;;;;8.40;6.45;;;14.00;99.90;;;;;;5048001;28;20108;-83
2023/06/09 05:32:10;;;;;;;10.43;6.82;;;14.00;99.90;;;;;;5053218;28;20077;-82
2023/06/09 05:34:36;;;;;;;10.32;6.88;;;14.10;99.90;;;;;;5055677;28;20029;-81
2023/06/09 05:37:04;;;;;;;10.23;6.95;;;14.20;99.90;;;;;;5057439;28;20052;-81
2023/06/09 05:39:30;;;;;;;9.93;7.13;;;14.30;99.90;;;;;;5037214;28;20040;-80
2023/06/09 05:41:56;;;;;;;10.93;6.78;;;14.40;99.90;;;;;;5048608;28;20041;-80
2023/06/09 05:44:22;;;;;;;9.98;6.88;;;14.60;99.90;;;;;;5055776;28;20029;-82
2023/06/09 05:46:47;;;;;;;9.60;6.90;;;14.80;99.90;;;;;;5047892;28;20040;-81
2023/06/09 05:49:13;;;;;;;7.85;7.03;;;15.00;99.90;;;;;;5058488;28;20067;-82
2023/06/09 05:51:39;;;;;;;8.10;7.05;;;15.20;99.90;;;;;;5049375;28;20029;-80
2023/06/09 05:54:06;;;;;;;9.40;6.57;;;15.30;99.90;;;;;;5060252;28;20175;-81
2023/06/09 05:56:37;;;;;;;10.90;7.18;;;15.50;99.90;;;;;;5053859;28;20029;-81
2023/06/09 05:59:03;;;;;;;11.00;7.28;;;15.70;99.90;;;;;;5052567;28;20512;-83
2023/06/09 06:01:36;;;;;;;8.32;6.45;;;15.80;99.90;;;;;;5034294;28;20042;-81
2023/06/09 06:04:02;;;;;;;9.45;6.72;;;16.10;99.90;;;;;;5048490;28;20044;-81
2023/06/09 06:06:50;;;;;;;11.13;7.38;;;16.20;99.90;;;;;;5051433;28;20049;-81
2023/06/09 06:09:16;;;;;;;10.48;6.63;;;16.50;99.90;;;;;;5055773;28;20112;-80
2023/06/09 06:11:42;;;;;;;8.80;6.47;;;16.60;99.90;;;;;;5054037;28;20064;-80
2023/06/09 06:14:08;;;;;;;10.10;7.20;;;16.70;99.90;;;;;;5055519;28;20825;-81
2023/06/09 06:18:14;;;;;;;9.18;7.15;;;16.90;99.90;;;;;;5058561;28;20036;-79
2023/06/09 06:20:09;;;;;;;8.75;6.82;;;17.00;99.90;;;;;;5030620;28;20052;-80
2023/06/09 06:22:35;;;;;;;8.88;6.70;;;17.20;99.90;;;;;;5056593;28;20036;-80
2023/06/09 06:25:00;;;;;;;9.07;6.57;;;17.30;99.90;;;;;;5060480;28;20074;-80
2023/06/09 06:27:27;;;;;;;8.80;7.10;;;17.30;99.90;;;;;;5052184;28;20031;-81
2023/06/09 06:29:52;;;;;;;9.02;6.05;;;17.60;99.90;;;;;;5044122;28;20029;-81
2023/06/09 06:32:18;;;;;;;6.13;5.40;;;17.60;99.90;;;;;;5050333;28;20060;-80
2023/06/09 06:34:43;;;;;;;5.07;4.57;;;17.70;99.90;;;;;;5058224;28;20096;-81
2023/06/09 06:37:09;;;;;;;5.43;4.28;;;17.80;99.90;;;;;;5053627;28;20051;-80
2023/06/09 06:39:35;;;;;;;4.47;4.07;;;17.90;99.90;;;;;;5066439;28;20060;-81
2023/06/09 06:42:01;;;;;;;4.80;4.00;;;17.90;99.90;;;;;;5045578;28;20029;-79
2023/06/09 06:44:26;;;;;;;7.40;4.80;;;18.20;99.90;;;;;;5062635;28;20025;-79
2023/06/09 06:46:52;;;;;;;6.18;4.95;;;18.30;99.90;;;;;;5056492;28;20024;-80
2023/06/09 06:49:18;;;;;;;5.13;4.60;;;18.20;99.90;;;;;;5062149;28;20025;-80
2023/06/09 06:51:44;;;;;;;6.18;4.47;;;18.30;99.90;;;;;;5051472;28;20033;-80
2023/06/09 06:54:09;;;;;;;7.65;5.13;;;18.40;99.90;;;;;;5056850;28;20045;-80
2023/06/09 06:56:38;;;;;;;5.45;4.50;;;18.50;99.90;;;;;;5027566;28;20025;-80
2023/06/09 06:59:04;;;;;;;5.70;5.07;;;18.50;99.90;;;;;;5055211;28;20029;-79
2023/06/09 07:01:31;;;;;;;7.13;4.95;;;18.50;99.90;;;;;;5056475;28;20052;-79
2023/06/09 07:03:57;;;;;;;8.68;5.18;;;18.60;99.90;;;;;;5041270;28;20076;-79
2023/06/09 07:06:23;;;;;;;6.53;5.25;;;18.70;99.90;;;;;;5047678;28;20425;-79
2023/06/09 07:08:50;;;;;;;8.45;5.80;;;18.70;99.90;;;;;;5040718;28;20028;-80
2023/06/09 07:11:16;;;;;;;6.18;5.15;;;18.70;99.90;;;;;;5050989;28;20032;-81
2023/06/09 07:13:41;;;;;;;7.60;5.95;;;18.80;99.90;;;;;;5029488;28;20033;-81
2023/06/09 07:16:07;;;;;;;6.53;5.00;;;19.00;99.90;;;;;;5049629;28;20505;-81
2023/06/09 07:18:33;;;;;;;9.68;5.70;;;19.00;99.90;;;;;;5034058;28;20031;-80
2023/06/09 07:20:59;;;;;;;8.93;5.85;;;19.20;99.90;;;;;;5052064;28;20396;-81
2023/06/09 07:23:25;;;;;;;6.95;5.78;;;19.20;99.90;;;;;;5038904;28;20032;-81
2023/06/09 07:25:53;;;;;;;7.18;6.10;;;19.30;99.90;;;;;;5032550;28;20074;-79
2023/06/09 07:28:18;;;;;;;7.47;6.22;;;19.40;99.90;;;;;;5056744;28;20100;-81
2023/06/09 07:30:47;;;;;;;7.60;6.22;;;19.60;99.90;;;;;;5048452;28;20060;-82
2023/06/09 07:33:13;;;;;;;7.10;5.70;;;19.60;99.90;;;;;;5038266;28;20301;-81
2023/06/09 07:35:39;;;;;;;6.97;5.72;;;19.80;99.90;;;;;;5054207;28;20032;-82
2023/06/09 07:38:05;;;;;;;7.20;5.60;;;19.90;99.90;;;;;;5050300;28;20079;-81
2023/06/09 07:40:31;;;;;;;8.77;6.80;;;20.20;99.90;;;;;;5052890;28;20037;-81
2023/06/09 07:42:56;;;;;;;8.38;6.38;;;20.10;99.90;;;;;;5049662;28;20040;-82
2023/06/09 07:45:22;;;;;;;6.97;5.20;;;20.00;99.90;;;;;;5050158;28;20738;-82
2023/06/09 07:47:48;;;;;;;6.10;5.20;;;20.00;99.90;;;;;;5054548;28;20461;-81
2023/06/09 07:50:14;;;;;;;5.63;4.88;;;20.20;99.90;;;;;;5046390;28;20354;-79
2023/06/09 07:52:39;;;;;;;7.00;5.60;;;20.30;99.90;;;;;;5051609;28;20567;-80
2023/06/09 07:55:09;;;;;;;6.45;5.85;;;20.30;99.90;;;;;;5054496;28;20041;-80
2023/06/09 07:57:35;;;;;;;6.38;5.68;;;20.20;99.90;;;;;;5050161;28;20068;-81
2023/06/09 08:00:01;;;;;;;6.60;5.82;;;20.20;99.90;;;;;;5034850;28;20064;-81
2023/06/09 08:02:31;;;;;;;7.20;5.63;;;20.40;99.90;;;;;;5052389;28;20047;-80
2023/06/09 08:04:57;;;;;;;7.03;5.40;;;20.40;99.90;;;;;;5058341;28;20657;-81
2023/06/09 08:07:22;;;;;;;5.90;5.05;;;20.60;99.90;;;;;;5049878;28;20122;-81
2023/06/09 08:09:48;;;;;;;6.75;5.13;;;20.60;99.90;;;;;;5054917;28;20396;-80
2023/06/09 08:12:15;;;;;;;6.25;5.10;;;20.70;99.90;;;;;;5053123;28;20096;-78
2023/06/09 08:14:43;;;;;;;6.18;5.10;;;20.80;99.90;;;;;;5054908;28;20029;-81
2023/06/09 08:17:09;;;;;;;7.55;5.10;;;20.80;99.90;;;;;;5054897;28;20158;-81
2023/06/09 08:19:53;;;;;;;5.00;4.40;;;21.10;99.90;;;;;;5056490;28;20025;-80
2023/06/09 08:22:38;;;;;;;;;;;;;;;;;;;;;
2023/06/09 08:25:21;;;;;;;6.10;5.05;;;21.40;99.90;;;;;;5043942;28;20049;-80
2023/06/09 08:27:47;;;;;;;5.85;5.07;;;21.80;99.90;;;;;;5041121;28;20028;-81
2023/06/09 08:30:18;;;;;;;8.15;5.53;;;21.70;99.90;;;;;;5053796;28;20056;-81
2023/06/09 08:35:50;;;;;;;5.90;4.70;;;21.70;99.90;;;;;;5042302;28;20051;-79
2023/06/09 08:38:16;;;;;;;7.60;5.03;;;21.50;99.90;;;;;;5048757;28;20031;-81
2023/06/09 08:40:42;;;;;;;5.03;4.60;;;21.50;99.90;;;;;;5050921;28;20021;-79
2023/06/09 08:43:09;;;;;;;5.85;4.80;;;21.60;99.90;;;;;;5026790;28;20033;-80
2023/06/09 08:45:38;;;;;;;23.35;6.03;;;21.70;99.90;;;;;;5050312;28;20044;-80
2023/06/09 08:48:08;;;;;;;6.20;4.55;;;21.20;99.90;;;;;;5051054;28;20058;-81
2023/06/09 08:50:41;;;;;;;6.47;4.30;;;21.20;99.90;;;;;;5050686;28;20095;-80
2023/06/09 08:53:11;;;;;;;5.45;4.32;;;21.10;99.90;;;;;;5051038;28;20108;-80
2023/06/09 08:55:40;;;;;;;5.30;4.53;;;21.20;99.90;;;;;;5055982;28;20528;-80
2023/06/09 08:58:13;;;;;;;5.10;4.60;;;21.40;99.90;;;;;;5035165;28;20124;-80
2023/06/09 09:00:40;;;;;;;5.20;4.70;;;21.80;99.90;;;;;;5050170;28;20029;-81
2023/06/09 09:03:06;;;;;;;5.10;4.60;;;22.00;99.90;;;;;;5055081;28;20017;-80
2023/06/09 09:05:32;;;;;;;5.60;5.00;;;22.10;99.90;;;;;;5057072;28;20044;-81
2023/06/09 09:07:58;;;;;;;4.43;3.97;;;22.20;99.90;;;;;;5054288;28;20037;-81
2023/06/09 09:10:24;;;;;;;5.25;4.75;;;22.50;99.90;;;;;;5052883;28;20033;-81
2023/06/09 09:12:54;;;;;;;4.30;3.90;;;22.60;99.90;;;;;;5048408;28;20396;-81
2023/06/09 09:15:22;;;;;;;5.93;4.93;;;22.40;99.90;;;;;;5053976;28;20105;-81
2023/06/09 09:17:48;;;;;;;;;;;22.40;99.90;;;;;;5059478;28;20124;-80
2023/06/09 09:20:14;;;;;;;4.63;4.20;;;22.30;99.90;;;;;;5040569;28;19962;-82
2023/06/09 09:22:48;;;;;;;5.13;4.13;;;22.20;99.90;;;;;;5050351;28;20415;-83
2023/06/09 09:25:21;;;;;;;4.72;4.07;;;22.30;99.90;;;;;;5050176;28;20094;-82
2023/06/09 09:28:06;;;;;;;5.43;4.70;;;22.50;99.90;;;;;;5040479;28;20072;-82
2023/06/09 09:30:46;;;;;;;4.70;4.30;;;22.80;99.90;;;;;;5049766;28;20037;-83
2023/06/09 09:33:13;;;;;;;4.95;4.45;;;22.80;99.90;;;;;;5056928;28;20041;-81
2023/06/09 09:35:40;;;;;;;;;;;22.70;99.90;;;;;;5051917;28;20481;-80
2023/06/09 09:38:12;;;;;;;3.90;3.35;;;22.80;99.90;;;;;;5055992;28;19920;-80
2023/06/09 09:40:46;;;;;;;3.75;3.35;;;22.70;99.90;;;;;;5049561;28;20037;-80
2023/06/09 09:43:12;;;;;;;6.05;3.50;;;22.70;99.90;;;;;;5053979;28;20093;-82
2023/06/09 09:45:48;;;;;;;7.95;4.63;;;22.70;99.90;;;;;;5050040;28;20028;-81
2023/06/09 09:48:17;;;;;;;3.60;3.30;;;22.60;99.90;;;;;;5055572;28;20492;-82
2023/06/09 09:50:48;;;;;;;3.25;2.92;;;22.90;99.90;;;;;;5056274;28;20047;-81
2023/06/09 09:53:16;;;;;;;3.90;3.60;;;23.10;99.90;;;;;;5057695;28;20144;-80
2023/06/09 09:55:45;;;;;;;3.97;3.58;;;23.00;99.90;;;;;;5051756;28;20049;-77
2023/06/09 09:58:12;;;;;;;3.47;3.17;;;22.50;99.90;;;;;;5054612;28;20037;-80
2023/06/09 10:00:44;;;;;;;4.15;3.40;;;22.70;99.90;;;;;;5052338;28;20063;-80
2023/06/09 10:03:18;;;;;;;3.22;3.03;;;22.80;99.90;;;;;;5051718;28;20041;-80
2023/06/09 10:05:46;;;;;;;3.30;3.00;;;23.00;99.90;;;;;;5058353;28;20033;-81
2023/06/09 10:08:21;;;;;;;5.35;4.95;;;23.00;99.90;;;;;;5052795;28;20468;-81
2023/06/09 10:10:48;;;;;;;3.35;3.05;;;23.00;99.90;;;;;;5055833;28;20036;-79
2023/06/09 10:13:15;;;;;;;3.80;3.50;;;23.00;99.90;;;;;;5060962;28;20094;-78
2023/06/09 10:15:45;;;;;;;3.90;3.50;;;22.90;99.90;;;;;;5048455;28;20041;-80
2023/06/09 10:18:12;;;;;;;4.90;3.45;;;23.10;99.90;;;;;;5057286;28;20095;-80
2023/06/09 10:20:44;;;;;;;3.33;3.03;;;23.40;99.90;;;;;;5057624;28;20083;-77
2023/06/09 10:23:10;;;;;;;4.25;3.22;;;23.60;99.90;;;;;;5059382;28;20045;-77
2023/06/09 10:25:37;;;;;;;3.45;3.13;;;23.70;99.90;;;;;;5040640;28;20504;-79
2023/06/09 10:28:03;;;;;;;4.88;3.83;;;23.70;99.90;;;;;;5052914;28;20021;-78
2023/06/09 10:30:29;;;;;;;4.03;3.45;;;23.70;99.90;;;;;;5057054;28;20071;-78
2023/06/09 10:33:18;;;;;;;4.20;3.50;;;23.50;99.90;;;;;;5055762;28;20134;-78
2023/06/09 10:35:46;;;;;;;3.65;3.35;;;23.60;99.90;;;;;;5038723;28;20041;-78
2023/06/09 10:38:30;;;;;;;3.72;3.30;;;23.70;99.90;;;;;;5053116;28;20029;-77
2023/06/09 10:41:18;;;;;;;3.53;3.22;;;24.00;99.90;;;;;;5058327;28;20148;-77
2023/06/09 10:43:52;;;;;;;4.65;3.60;;;24.40;99.90;;;;;;5060374;28;20045;-76
2023/06/09 10:46:41;;;;;;;4.55;3.83;;;24.30;99.90;;;;;;5054904;28;20063;-77
2023/06/09 10:49:07;;;;;;;3.55;3.22;;;24.40;99.90;;;;;;5055417;28;20029;-77
2023/06/09 10:51:39;;;;;;;4.15;3.20;;;24.30;99.90;;;;;;5054033;28;20104;-77
2023/06/09 10:54:12;;;;;;;3.60;3.30;;;23.90;99.90;;;;;;5055717;28;20021;-79
2023/06/09 10:56:43;;;;;;;4.88;3.10;;;23.70;99.90;;;;;;5051278;28;20032;-79
2023/06/09 10:59:24;;;;;;;2.85;2.25;;;23.80;99.90;;;;;;5055317;28;20041;-79
2023/06/09 11:02:00;;;;;;;2.97;2.60;;;23.20;99.90;;;;;;5043207;28;20044;-78
2023/06/09 11:04:37;;;;;;;3.10;2.78;;;23.20;99.90;;;;;;5060684;28;20025;-79
2023/06/09 11:07:17;;;;;;;2.85;2.60;;;23.60;99.90;;;;;;5052131;28;20032;-78
2023/06/09 11:10:03;;;;;;;3.70;2.70;;;23.50;99.90;;;;;;5039824;28;20025;-79
2023/06/09 11:12:42;;;;;;;3.08;2.60;;;24.00;99.90;;;;;;5045183;28;21230;-79
2023/06/09 11:15:12;;;;;;;3.30;3.00;;;24.00;99.90;;;;;;5055734;28;20039;-78
2023/06/09 11:17:40;;;;;;;3.22;2.88;;;24.00;99.90;;;;;;5061918;28;20092;-79
2023/06/09 11:20:14;;;;;;;4.05;2.88;;;24.00;99.90;;;;;;5058525;28;20065;-79
2023/06/09 11:22:50;;;;;;;2.80;2.53;;;23.90;99.90;;;;;;5051946;28;20033;-79
2023/06/09 11:25:18;;;;;;;3.20;2.58;;;23.90;99.90;;;;;;5060026;28;20037;-79
2023/06/09 11:28:07;;;;;;;2.47;2.28;;;24.40;99.90;;;;;;5056029;28;20033;-79
2023/06/09 11:30:32;;;;;;;2.50;2.25;;;24.70;99.90;;;;;;5048301;28;20028;-79
2023/06/09 11:33:03;;;;;;;2.88;2.67;;;24.60;99.90;;;;;;5062718;28;20078;-81
2023/06/09 11:35:28;;;;;;;3.05;2.75;;;24.60;99.90;;;;;;5061190;28;20055;-82
2023/06/09 11:37:56;;;;;;;3.80;3.17;;;24.70;99.90;;;;;;5059719;28;20029;-81
2023/06/09 11:40:23;;;;;;;3.20;2.90;;;24.80;99.90;;;;;;5052332;28;20068;-80
2023/06/09 11:42:50;;;;;;;3.70;3.17;;;24.90;99.90;;;;;;5049543;28;20089;-81
2023/06/09 11:45:16;;;;;;;3.35;3.05;;;24.80;99.90;;;;;;5051382;28;20038;-81
2023/06/09 11:47:44;;;;;;;3.50;3.20;;;23.90;99.90;;;;;;5057860;28;20025;-81
2023/06/09 11:50:14;;;;;;;3.95;3.58;;;24.00;99.90;;;;;;5044165;28;20033;-81
2023/06/09 11:52:44;;;;;;;3.42;3.17;;;24.20;99.90;;;;;;5059570;28;20036;-81
2023/06/09 11:55:13;;;;;;;4.57;3.60;;;24.50;99.90;;;;;;5052215;28;20037;-81
2023/06/09 11:57:39;;;;;;;5.20;3.50;;;24.40;99.90;;;;;;5034946;28;20061;-81
2023/06/09 12:00:15;;;;;;;3.85;3.30;;;23.70;99.90;;;;;;5042088;28;20033;-81
2023/06/09 12:02:47;;;;;;;4.25;3.47;;;23.40;99.90;;;;;;5037202;28;20226;-80
2023/06/09 12:05:14;;;;;;;3.42;2.92;;;23.00;99.90;;;;;;5053734;28;20040;-80
2023/06/09 12:07:44;;;;;;;3.83;3.30;;;23.10;99.90;;;;;;5052147;28;20464;-81
2023/06/09 12:10:12;;;;;;;3.28;2.97;;;23.20;99.90;;;;;;5054265;28;20021;-81
2023/06/09 12:12:58;;;;;;;3.50;3.20;;;22.90;99.90;;;;;;5048224;28;20033;-82
2023/06/09 12:15:25;;;;;;;3.35;3.05;;;22.80;99.90;;;;;;5059060;28;20041;-81
2023/06/09 12:17:53;;;;;;;3.10;2.85;;;23.30;99.90;;;;;;5051239;28;20025;-83
2023/06/09 12:20:29;;;;;;;3.40;3.10;;;23.70;99.90;;;;;;5056627;28;20025;-81
2023/06/09 12:23:06;;;;;;;3.40;3.10;;;23.70;99.90;;;;;;5051065;28;20040;-81
2023/06/09 12:25:38;;;;;;;2.97;2.78;;;23.50;99.90;;;;;;5035198;28;20033;-81
2023/06/09 12:28:23;;;;;;;3.40;3.10;;;23.50;99.90;;;;;;5058675;28;20044;-81
2023/06/09 12:30:51;;;;;;;3.50;3.20;;;23.20;99.90;;;;;;5054637;28;20554;-83
2023/06/09 12:33:18;;;;;;;4.88;2.95;;;23.10;99.90;;;;;;5043650;28;20032;-82
2023/06/09 12:35:45;;;;;;;2.72;2.53;;;23.60;99.90;;;;;;5054748;28;20078;-81
2023/06/09 12:38:18;;;;;;;3.15;2.75;;;24.30;99.90;;;;;;5055680;28;20093;-81
2023/06/09 12:40:46;;;;;;;2.75;2.55;;;24.40;99.90;;;;;;5057317;28;20086;-81
2023/06/09 12:43:12;;;;;;;;;;;24.50;99.90;;;;;;5053928;28;20036;-81
2023/06/09 12:45:44;;;;;;;3.20;2.90;;;24.30;99.90;;;;;;5056451;28;19980;-79
2023/06/09 12:48:10;;;;;;;4.45;2.70;;;24.20;99.90;;;;;;5041128;28;20025;-81
2023/06/09 12:50:37;;;;;;;2.80;2.60;;;24.20;99.90;;;;;;5058893;28;20053;-81
2023/06/09 12:53:06;;;;;;;2.70;2.50;;;24.60;99.90;;;;;;5054753;28;20049;-81
2023/06/09 12:55:32;;;;;;;6.10;2.80;;;25.10;99.90;;;;;;5035771;28;20032;-80
2023/06/09 12:57:58;;;;;;;3.40;3.10;;;25.20;99.90;;;;;;5054360;28;20099;-81
2023/06/09 13:00:24;;;;;;;10.15;3.10;;;25.10;99.90;;;;;;5054543;28;20029;-78